Time;durP1;ratioP1;P1;durP2;ratioP2;P2;SDS_P1;SDS_P2;PMS_P1;PMS_P2;Temp;Humidity;BMP_temperature;BMP_pressure;BME280_temperature;BME280_humidity;BME280_pressure;Samples;Min_cycle;Max_cycle;Signal;HPM_P1;HPM_P2
2022/08/30 00:01:34;;;;;;;6.55;3.60;;;28.90;39.60;;;;;;5995963;29;20118;-78
2022/08/30 00:04:35;;;;;;;5.10;3.53;;;28.90;39.80;;;;;;6011796;29;20090;-79
2022/08/30 00:07:37;;;;;;;8.10;3.28;;;28.90;39.90;;;;;;5994863;29;20041;-79
2022/08/30 00:10:40;;;;;;;6.60;3.53;;;28.90;39.80;;;;;;6002489;29;20049;-79
2022/08/30 00:13:44;;;;;;;5.65;4.03;;;28.80;39.70;;;;;;5991725;29;20034;-79
2022/08/30 00:16:45;;;;;;;9.40;3.58;;;28.80;39.70;;;;;;6011680;29;20484;-78
2022/08/30 00:19:46;;;;;;;8.35;3.70;;;28.80;39.70;;;;;;5978455;29;20395;-78
2022/08/30 00:22:48;;;;;;;9.80;3.70;;;28.80;39.70;;;;;;5995585;29;20074;-79
2022/08/30 00:25:49;;;;;;;4.22;3.40;;;28.70;39.60;;;;;;5993969;29;20057;-79
2022/08/30 00:28:50;;;;;;;6.72;3.90;;;28.70;40.00;;;;;;6011656;29;20046;-78
2022/08/30 00:31:51;;;;;;;12.32;3.63;;;28.70;39.70;;;;;;6010003;29;20046;-79
2022/08/30 00:34:53;;;;;;;5.82;3.85;;;28.70;39.80;;;;;;5994933;29;20065;-79
2022/08/30 00:37:55;;;;;;;7.30;3.55;;;28.70;40.50;;;;;;5995574;29;20074;-79
2022/08/30 00:40:58;;;;;;;7.25;3.70;;;28.70;40.00;;;;;;5994570;29;20102;-79
2022/08/30 00:43:59;;;;;;;6.93;3.97;;;28.60;40.00;;;;;;6011348;29;20456;-79
2022/08/30 00:47:01;;;;;;;6.13;3.58;;;28.60;40.00;;;;;;5994096;29;20038;-78
2022/08/30 00:50:04;;;;;;;8.65;3.83;;;28.60;40.10;;;;;;5992638;29;20044;-79
2022/08/30 00:53:07;;;;;;;4.85;3.58;;;28.60;40.10;;;;;;6010121;29;20038;-79
2022/08/30 00:56:09;;;;;;;5.15;3.60;;;28.60;40.30;;;;;;6010369;29;20060;-79
2022/08/30 00:59:10;;;;;;;8.20;3.45;;;28.60;40.40;;;;;;5994715;29;20041;-78
2022/08/30 01:02:12;;;;;;;5.38;3.70;;;28.50;40.50;;;;;;6009846;29;20122;-80
2022/08/30 01:05:14;;;;;;;5.43;3.83;;;28.50;40.60;;;;;;6010443;29;20406;-79
2022/08/30 01:08:15;;;;;;;5.65;3.40;;;28.50;40.60;;;;;;5993254;29;20042;-79
2022/08/30 01:11:20;;;;;;;4.78;3.40;;;28.40;40.60;;;;;;6010321;29;20030;-79
2022/08/30 01:14:21;;;;;;;8.02;3.47;;;28.40;40.60;;;;;;6010572;29;20034;-79
2022/08/30 01:17:23;;;;;;;4.47;3.10;;;28.40;40.60;;;;;;5994418;29;20132;-79
2022/08/30 01:20:46;;;;;;;4.75;3.20;;;28.30;40.60;;;;;;5976272;29;20057;-79
2022/08/30 01:23:49;;;;;;;5.47;3.22;;;28.30;40.80;;;;;;5992790;29;20049;-79
2022/08/30 01:26:50;;;;;;;5.93;3.50;;;28.20;40.90;;;;;;5999684;29;20049;-79
2022/08/30 01:29:52;;;;;;;3.92;3.13;;;28.10;41.10;;;;;;6010988;29;20401;-79
2022/08/30 01:32:59;;;;;;;5.47;3.42;;;28.00;41.30;;;;;;6036064;29;20053;-78
2022/08/30 01:36:06;;;;;;;7.30;3.28;;;27.90;41.50;;;;;;6022972;29;20046;-78
2022/08/30 01:39:10;;;;;;;6.78;3.72;;;27.80;41.60;;;;;;6027824;29;20037;-81
2022/08/30 01:42:11;;;;;;;7.13;3.58;;;27.80;41.70;;;;;;6009338;29;20046;-79
2022/08/30 01:45:13;;;;;;;5.15;3.53;;;27.70;41.80;;;;;;6007509;29;20056;-80
2022/08/30 01:48:14;;;;;;;6.90;3.67;;;27.70;42.00;;;;;;6006968;29;20464;-78
2022/08/30 01:51:16;;;;;;;7.53;3.35;;;27.70;42.10;;;;;;6007977;29;20083;-79
2022/08/30 01:54:17;;;;;;;7.60;3.40;;;27.70;42.30;;;;;;6008825;29;20443;-79
2022/08/30 01:57:21;;;;;;;6.00;4.10;;;27.70;42.40;;;;;;6007272;29;20132;-79
2022/08/30 02:00:23;;;;;;;5.90;3.50;;;27.70;42.40;;;;;;6007736;29;20051;-79
2022/08/30 02:03:25;;;;;;;6.72;3.80;;;27.70;42.40;;;;;;6008169;29;20034;-79
2022/08/30 02:06:26;;;;;;;6.78;3.88;;;27.70;42.50;;;;;;6006089;29;20481;-79
2022/08/30 02:09:28;;;;;;;5.90;3.40;;;27.70;42.70;;;;;;6006707;29;20130;-79
2022/08/30 02:12:30;;;;;;;5.43;3.25;;;27.60;42.70;;;;;;6008130;29;20087;-78
2022/08/30 02:15:31;;;;;;;6.03;3.58;;;27.60;42.70;;;;;;6011633;29;20042;-79
2022/08/30 02:18:34;;;;;;;9.45;3.53;;;27.60;42.80;;;;;;6012004;29;20038;-78
2022/08/30 02:21:35;;;;;;;9.38;5.43;;;27.60;42.90;;;;;;6009220;29;20038;-79
2022/08/30 02:24:36;;;;;;;7.00;3.78;;;27.60;42.90;;;;;;6009757;29;20050;-80
2022/08/30 02:27:38;;;;;;;9.52;3.47;;;27.60;42.90;;;;;;6017129;29;20113;-78
2022/08/30 02:30:39;;;;;;;6.35;3.90;;;27.60;42.90;;;;;;6002938;29;20046;-78
2022/08/30 02:33:40;;;;;;;6.00;3.92;;;27.60;42.90;;;;;;6012306;29;20120;-78
2022/08/30 02:36:41;;;;;;;5.43;3.83;;;27.60;42.80;;;;;;6002153;29;20130;-79
2022/08/30 02:39:42;;;;;;;10.80;4.10;;;27.60;42.80;;;;;;5980928;29;20030;-79
2022/08/30 02:42:43;;;;;;;5.75;3.75;;;27.60;43.00;;;;;;6011910;29;20120;-79
2022/08/30 02:45:44;;;;;;;5.72;3.85;;;27.60;43.10;;;;;;6012546;29;20041;-78
2022/08/30 02:48:45;;;;;;;15.48;4.47;;;27.60;43.10;;;;;;6011440;29;20368;-80
2022/08/30 02:51:48;;;;;;;5.82;3.65;;;27.60;43.20;;;;;;5996496;29;20479;-78
2022/08/30 02:54:49;;;;;;;8.10;3.67;;;27.60;43.20;;;;;;6012189;29;20060;-79
2022/08/30 02:57:50;;;;;;;6.38;4.07;;;27.60;43.30;;;;;;5994865;29;20050;-79
2022/08/30 03:00:51;;;;;;;4.82;3.47;;;27.50;43.40;;;;;;6006297;29;20038;-79
2022/08/30 03:03:52;;;;;;;5.30;3.38;;;27.50;43.60;;;;;;5977294;29;20486;-78
2022/08/30 03:06:54;;;;;;;8.73;3.58;;;27.50;43.60;;;;;;6009759;29;20372;-78
2022/08/30 03:09:55;;;;;;;5.55;3.60;;;27.40;43.70;;;;;;6002308;29;20052;-78
2022/08/30 03:12:56;;;;;;;8.40;3.95;;;27.40;44.00;;;;;;6010034;29;20106;-78
2022/08/30 03:15:57;;;;;;;8.32;3.70;;;27.40;44.20;;;;;;6011227;29;20046;-78
2022/08/30 03:18:59;;;;;;;9.88;5.00;;;27.30;44.20;;;;;;5978691;29;20050;-78
2022/08/30 03:22:00;;;;;;;22.42;8.90;;;27.30;44.40;;;;;;6003231;29;20484;-78
2022/08/30 03:25:01;;;;;;;19.17;9.52;;;27.20;44.60;;;;;;6008376;29;20064;-78
2022/08/30 03:28:03;;;;;;;11.32;5.65;;;27.20;44.80;;;;;;6011027;29;20042;-78
2022/08/30 03:31:04;;;;;;;10.02;4.55;;;27.10;44.90;;;;;;5994567;29;20038;-78
2022/08/30 03:34:05;;;;;;;8.90;4.00;;;27.00;45.00;;;;;;6010968;29;20041;-78
2022/08/30 03:37:06;;;;;;;4.97;3.63;;;26.80;45.10;;;;;;6011623;29;20106;-78
2022/08/30 03:40:09;;;;;;;8.52;3.85;;;26.90;45.30;;;;;;6011065;29;20124;-79
2022/08/30 03:43:10;;;;;;;6.82;3.67;;;26.80;45.40;;;;;;5992273;29;20384;-79
2022/08/30 03:46:12;;;;;;;10.63;4.03;;;26.80;45.50;;;;;;5993772;29;20464;-79
2022/08/30 03:49:14;;;;;;;8.07;3.88;;;26.80;45.70;;;;;;5992635;29;20046;-78
2022/08/30 03:52:16;;;;;;;6.85;4.18;;;26.70;45.80;;;;;;5989842;29;20030;-79
2022/08/30 03:55:17;;;;;;;4.75;3.47;;;26.70;46.00;;;;;;6000871;29;20045;-80
2022/08/30 03:58:18;;;;;;;9.32;3.78;;;26.60;46.10;;;;;;6011550;29;20111;-79
2022/08/30 04:01:19;;;;;;;11.15;4.18;;;26.50;46.10;;;;;;6011370;29;20034;-80
2022/08/30 04:04:20;;;;;;;7.15;4.20;;;26.50;46.20;;;;;;5993106;29;20029;-77
2022/08/30 04:07:22;;;;;;;8.95;4.60;;;26.60;46.20;;;;;;6012439;29;20045;-78
2022/08/30 04:10:23;;;;;;;5.68;3.92;;;26.60;46.40;;;;;;6023731;29;20042;-78
2022/08/30 04:13:24;;;;;;;7.47;4.40;;;26.50;46.30;;;;;;6009172;29;20440;-77
2022/08/30 04:16:25;;;;;;;8.98;3.90;;;26.50;46.30;;;;;;6029655;29;20049;-80
2022/08/30 04:19:26;;;;;;;5.07;3.70;;;26.50;46.30;;;;;;6016631;29;20044;-79
2022/08/30 04:22:27;;;;;;;4.78;3.45;;;26.50;46.40;;;;;;5981246;29;20349;-79
2022/08/30 04:25:28;;;;;;;9.35;3.70;;;26.50;46.30;;;;;;5995303;29;20065;-79
2022/08/30 04:28:30;;;;;;;6.90;3.50;;;26.50;46.30;;;;;;6011661;29;20034;-79
2022/08/30 04:31:31;;;;;;;6.45;3.65;;;26.50;46.30;;;;;;5996235;29;20038;-79
2022/08/30 04:34:32;;;;;;;11.60;4.10;;;26.50;46.30;;;;;;5994070;29;20038;-79
2022/08/30 04:37:33;;;;;;;4.63;3.17;;;26.60;46.30;;;;;;5994298;29;20045;-79
2022/08/30 04:40:35;;;;;;;9.68;3.67;;;26.50;46.30;;;;;;6008161;29;20049;-80
2022/08/30 04:43:36;;;;;;;5.63;3.83;;;26.50;46.10;;;;;;5993707;29;20376;-79
2022/08/30 04:46:37;;;;;;;7.35;3.75;;;26.50;46.00;;;;;;6009543;29;20479;-79
2022/08/30 04:49:38;;;;;;;5.93;3.83;;;26.50;46.00;;;;;;6010588;29;20361;-80
2022/08/30 04:52:39;;;;;;;5.65;3.22;;;26.50;45.90;;;;;;5996672;29;20121;-78
2022/08/30 04:55:42;;;;;;;13.38;3.90;;;26.50;45.80;;;;;;6010840;29;20054;-79
2022/08/30 04:58:45;;;;;;;8.43;3.30;;;26.50;45.90;;;;;;6000312;29;20047;-79
2022/08/30 05:01:47;;;;;;;7.40;3.90;;;26.50;45.90;;;;;;5996457;29;20376;-79
2022/08/30 05:08:11;;;;;;;6.07;3.63;;;26.50;45.60;;;;;;6008127;29;20045;-79
2022/08/30 05:11:14;;;;;;;5.38;3.78;;;26.50;45.50;;;;;;5993597;29;20041;-80
2022/08/30 05:14:15;;;;;;;7.50;3.65;;;26.60;45.50;;;;;;5976869;29;20054;-80
2022/08/30 05:17:16;;;;;;;6.45;3.53;;;26.60;45.40;;;;;;6010972;29;20041;-80
2022/08/30 05:20:17;;;;;;;7.18;3.65;;;26.60;45.40;;;;;;6010416;29;20461;-77
2022/08/30 05:23:18;;;;;;;4.95;3.47;;;26.60;45.50;;;;;;5999645;29;20061;-80
2022/08/30 05:26:25;;;;;;;9.50;3.83;;;26.60;45.40;;;;;;6013086;29;20050;-79
2022/08/30 05:29:26;;;;;;;14.67;3.90;;;26.60;45.50;;;;;;6011925;29;20048;-79
2022/08/30 05:32:28;;;;;;;8.82;3.03;;;26.60;45.50;;;;;;6026284;29;20289;-79
2022/08/30 05:35:39;;;;;;;10.88;3.47;;;26.60;45.60;;;;;;5990874;29;20130;-79
2022/08/30 05:38:41;;;;;;;7.70;3.60;;;26.60;45.80;;;;;;5992605;29;20054;-80
2022/08/30 05:41:42;;;;;;;5.93;4.03;;;26.60;45.90;;;;;;6020665;29;20120;-79
2022/08/30 05:44:43;;;;;;;6.90;3.72;;;26.60;45.90;;;;;;6012303;29;20046;-79
2022/08/30 05:47:46;;;;;;;6.13;3.92;;;26.60;45.90;;;;;;6009604;29;20102;-80
2022/08/30 05:50:47;;;;;;;5.68;3.65;;;26.60;46.00;;;;;;6011432;29;20072;-79
2022/08/30 05:53:51;;;;;;;5.40;3.75;;;26.60;46.10;;;;;;5998699;29;20050;-80
2022/08/30 05:56:53;;;;;;;12.98;3.75;;;26.60;46.10;;;;;;6015046;29;20488;-80
2022/08/30 05:59:54;;;;;;;8.32;3.67;;;26.60;46.20;;;;;;5993805;29;20078;-78
2022/08/30 06:02:55;;;;;;;7.03;3.65;;;26.60;46.40;;;;;;6008321;29;20050;-79
2022/08/30 06:05:56;;;;;;;10.15;3.75;;;26.60;46.40;;;;;;5997235;29;20559;-79
2022/08/30 06:08:57;;;;;;;5.10;3.67;;;26.60;46.50;;;;;;6008085;29;20420;-80
2022/08/30 06:11:58;;;;;;;7.75;3.97;;;26.60;46.50;;;;;;6008333;29;20505;-78
2022/08/30 06:14:59;;;;;;;13.02;4.00;;;26.70;46.50;;;;;;5992790;29;20141;-80
2022/08/30 06:18:01;;;;;;;13.52;3.80;;;26.70;46.30;;;;;;6017763;29;20042;-79
2022/08/30 06:21:02;;;;;;;10.65;3.88;;;26.70;46.10;;;;;;6008772;29;20038;-80
2022/08/30 06:24:05;;;;;;;14.55;3.63;;;26.80;45.90;;;;;;6007485;29;20042;-80
2022/08/30 06:27:06;;;;;;;7.50;3.65;;;26.80;45.60;;;;;;6019724;29;20045;-80
2022/08/30 06:30:09;;;;;;;6.43;3.80;;;26.80;45.40;;;;;;6006978;29;20167;-79
2022/08/30 06:33:11;;;;;;;7.93;4.32;;;26.80;45.30;;;;;;6008407;29;20090;-79
2022/08/30 06:36:16;;;;;;;9.43;4.05;;;26.80;45.10;;;;;;5991785;29;20819;-78
2022/08/30 06:39:17;;;;;;;7.63;3.83;;;26.80;45.00;;;;;;6012199;29;20050;-79
2022/08/30 06:42:18;;;;;;;6.32;3.63;;;26.80;44.90;;;;;;6006941;29;20042;-79
2022/08/30 06:45:20;;;;;;;4.38;3.30;;;26.90;44.90;;;;;;6009222;29;20027;-79
2022/08/30 06:48:21;;;;;;;7.18;3.83;;;27.00;44.80;;;;;;6011744;29;20035;-78
2022/08/30 06:51:28;;;;;;;11.23;4.05;;;27.00;44.50;;;;;;6021037;29;20054;-78
2022/08/30 06:54:30;;;;;;;11.90;3.90;;;27.10;44.50;;;;;;6024529;29;20038;-78
2022/08/30 06:57:31;;;;;;;7.35;4.13;;;27.10;44.30;;;;;;6002921;29;20042;-80
2022/08/30 07:00:31;;;;;;;7.13;4.05;;;27.20;44.20;;;;;;6011717;29;20089;-80
2022/08/30 07:03:34;;;;;;;6.30;3.53;;;27.20;44.10;;;;;;6014680;29;20071;-79
2022/08/30 07:06:35;;;;;;;15.90;4.10;;;27.20;44.00;;;;;;6014465;29;20056;-80
2022/08/30 07:09:41;;;;;;;6.75;3.45;;;27.20;44.10;;;;;;5995621;29;20052;-79
2022/08/30 07:12:42;;;;;;;14.55;3.85;;;27.20;44.10;;;;;;6012702;29;20042;-79
2022/08/30 07:15:45;;;;;;;12.63;3.85;;;27.20;44.10;;;;;;6022647;29;20042;-79
2022/08/30 07:18:49;;;;;;;10.25;4.07;;;27.20;44.30;;;;;;5997130;29;20049;-79
2022/08/30 07:21:50;;;;;;;6.30;3.95;;;27.10;44.40;;;;;;6015184;29;20419;-80
2022/08/30 07:24:51;;;;;;;7.10;4.00;;;27.10;44.50;;;;;;6011564;29;20468;-79
2022/08/30 07:27:55;;;;;;;16.20;3.67;;;27.10;44.50;;;;;;5996139;29;20145;-79
2022/08/30 07:30:56;;;;;;;8.35;3.83;;;27.20;44.50;;;;;;6026373;29;20045;-79
2022/08/30 07:33:57;;;;;;;14.25;4.88;;;27.20;44.20;;;;;;5997225;29;20052;-78
2022/08/30 07:36:58;;;;;;;11.13;4.18;;;27.30;44.10;;;;;;6000145;29;20050;-79
2022/08/30 07:39:59;;;;;;;5.63;4.10;;;27.40;43.90;;;;;;6012005;29;20046;-79
2022/08/30 07:43:01;;;;;;;12.90;4.03;;;27.50;43.80;;;;;;5990135;29;20061;-80
2022/08/30 07:46:04;;;;;;;31.48;4.32;;;27.60;43.60;;;;;;6012811;29;20145;-78
2022/08/30 07:49:06;;;;;;;6.95;3.95;;;27.80;43.30;;;;;;6012792;29;20038;-79
2022/08/30 07:52:07;;;;;;;4.97;3.50;;;28.00;43.00;;;;;;6012389;29;20038;-78
2022/08/30 07:55:09;;;;;;;7.03;3.95;;;28.10;42.80;;;;;;6001519;29;20041;-78
2022/08/30 07:58:09;;;;;;;11.02;3.50;;;28.20;42.70;;;;;;6012914;29;20045;-80
2022/08/30 08:01:12;;;;;;;9.82;3.40;;;28.30;42.60;;;;;;5992119;29;20035;-78
2022/08/30 08:04:12;;;;;;;18.02;3.88;;;28.40;42.60;;;;;;6011935;29;20092;-80
2022/08/30 08:07:25;;;;;;;8.73;3.72;;;28.50;42.70;;;;;;5995790;29;20423;-80
2022/08/30 08:10:26;;;;;;;10.38;3.63;;;28.60;42.70;;;;;;6009283;29;20069;-78
2022/08/30 08:13:27;;;;;;;7.15;3.75;;;28.80;42.70;;;;;;6008084;29;20030;-80
2022/08/30 08:16:30;;;;;;;8.10;3.40;;;28.90;42.50;;;;;;6012174;29;20065;-79
2022/08/30 08:19:32;;;;;;;14.68;4.18;;;29.10;42.30;;;;;;6009960;29;20046;-79
2022/08/30 08:22:33;;;;;;;5.47;3.42;;;29.20;41.90;;;;;;6007668;29;20069;-79
2022/08/30 08:25:39;;;;;;;7.07;3.80;;;29.40;41.50;;;;;;6011794;29;20133;-79
2022/08/30 08:28:40;;;;;;;17.60;3.95;;;29.50;40.90;;;;;;6010389;29;20073;-79
2022/08/30 08:31:42;;;;;;;21.13;4.07;;;29.70;40.20;;;;;;6011663;29;20034;-79
2022/08/30 08:34:43;;;;;;;10.73;3.75;;;29.90;39.60;;;;;;6010885;29;20049;-79
2022/08/30 08:37:44;;;;;;;7.78;3.78;;;30.00;39.00;;;;;;6011401;29;20527;-79
2022/08/30 08:41:05;;;;;;;10.55;4.07;;;30.10;38.20;;;;;;5995215;29;20042;-80
2022/08/30 08:44:27;;;;;;;5.18;3.35;;;30.10;38.00;;;;;;5980603;29;20058;-78
2022/08/30 08:47:57;;;;;;;9.48;3.90;;;30.10;37.80;;;;;;6007346;29;20073;-79
2022/08/30 08:54:32;;;;;;;9.15;5.00;;;30.30;37.70;;;;;;6010179;29;20042;-80
2022/08/30 08:57:36;;;;;;;14.10;5.55;;;30.30;37.60;;;;;;5993862;29;20048;-80
2022/08/30 09:00:37;;;;;;;16.77;5.00;;;30.40;37.70;;;;;;5994245;29;20034;-80
2022/08/30 09:03:38;;;;;;;11.55;5.30;;;30.40;37.80;;;;;;6009884;29;20045;-80
2022/08/30 09:06:53;;;;;;;24.02;4.47;;;30.40;37.80;;;;;;5969736;29;20133;-79
2022/08/30 09:09:58;;;;;;;19.65;3.75;;;30.50;37.80;;;;;;5993939;29;20046;-79
2022/08/30 09:13:00;;;;;;;20.33;4.97;;;30.60;37.50;;;;;;5992656;29;20038;-79
2022/08/30 09:16:01;;;;;;;7.53;4.80;;;30.70;37.30;;;;;;5970223;29;20122;-79
2022/08/30 09:19:03;;;;;;;16.70;4.60;;;30.70;37.10;;;;;;5994723;29;20061;-80
2022/08/30 09:22:27;;;;;;;16.73;6.88;;;30.80;36.80;;;;;;5978087;29;20045;-78
2022/08/30 09:25:31;;;;;;;13.82;7.43;;;31.00;36.30;;;;;;6006141;29;20042;-79
2022/08/30 09:28:43;;;;;;;7.63;4.13;;;31.00;35.90;;;;;;6016519;29;20074;-80
2022/08/30 09:31:52;;;;;;;24.00;4.13;;;31.10;35.70;;;;;;6019844;29;20352;-78
2022/08/30 09:34:54;;;;;;;12.68;4.07;;;31.10;35.40;;;;;;6001561;29;20045;-79
2022/08/30 09:38:03;;;;;;;16.00;5.68;;;31.20;35.20;;;;;;5998407;29;20053;-78
2022/08/30 09:41:25;;;;;;;10.93;5.65;;;31.30;34.90;;;;;;6012318;29;20384;-79
2022/08/30 09:44:28;;;;;;;13.13;5.88;;;31.40;34.30;;;;;;6008633;29;20112;-78
2022/08/30 09:47:30;;;;;;;12.75;4.68;;;31.50;34.10;;;;;;5994444;29;20064;-79
2022/08/30 09:50:35;;;;;;;8.98;3.80;;;31.60;34.10;;;;;;6012776;29;20030;-80
2022/08/30 09:53:57;;;;;;;8.43;3.58;;;31.70;34.00;;;;;;5993007;29;20034;-80
2022/08/30 09:57:17;;;;;;;7.93;3.88;;;31.80;33.60;;;;;;5996822;29;20483;-78
2022/08/30 10:00:20;;;;;;;11.93;5.05;;;32.00;33.40;;;;;;5987633;29;20041;-78
2022/08/30 10:03:49;;;;;;;10.75;3.38;;;32.10;33.10;;;;;;6009699;29;20070;-79
2022/08/30 10:07:15;;;;;;;9.88;3.40;;;32.10;32.80;;;;;;5988374;29;20054;-79
2022/08/30 10:10:47;;;;;;;14.88;7.75;;;32.00;32.90;;;;;;5996957;29;20038;-80
2022/08/30 10:14:11;;;;;;;14.45;5.18;;;31.90;33.00;;;;;;5904362;30;20130;-81
2022/08/30 10:17:39;;;;;;;6.70;3.58;;;31.90;33.10;;;;;;5897186;30;20051;-80
2022/08/30 10:21:01;;;;;;;10.30;5.10;;;32.00;33.10;;;;;;5903502;30;20052;-78
2022/08/30 10:24:08;;;;;;;9.65;4.80;;;32.10;33.00;;;;;;5919465;29;20055;-78
2022/08/30 10:27:16;;;;;;;14.90;4.40;;;32.20;32.90;;;;;;5921844;29;20059;-78
2022/08/30 10:30:18;;;;;;;7.38;2.70;;;32.20;32.70;;;;;;5933784;29;20284;-78
2022/08/30 10:33:44;;;;;;;9.63;5.53;;;32.30;32.60;;;;;;5913685;29;20039;-79
2022/08/30 10:36:55;;;;;;;10.85;6.35;;;32.40;32.50;;;;;;5943851;29;20070;-80
2022/08/30 10:41:11;;;;;;;6.93;4.05;;;32.50;32.40;;;;;;5933010;29;20107;-80
2022/08/30 10:43:43;;;;;;;9.88;3.65;;;32.60;32.30;;;;;;5937046;29;20043;-79
2022/08/30 10:47:38;;;;;;;6.47;3.85;;;32.60;31.90;;;;;;5948152;29;20061;-78
2022/08/30 10:50:52;;;;;;;6.28;3.20;;;32.60;32.60;;;;;;5938517;29;20092;-80
2022/08/30 10:54:09;;;;;;;5.05;3.53;;;32.90;31.60;;;;;;5949473;29;20059;-80
2022/08/30 10:57:10;;;;;;;4.03;2.97;;;33.30;31.10;;;;;;5964071;29;20449;-80
2022/08/30 11:00:21;;;;;;;6.43;2.83;;;33.70;30.70;;;;;;5964532;29;20109;-79
2022/08/30 11:03:35;;;;;;;16.20;2.90;;;34.10;30.40;;;;;;5957765;29;20043;-80
2022/08/30 11:06:48;;;;;;;4.25;2.35;;;34.40;30.30;;;;;;5966805;29;20039;-80
2022/08/30 11:10:07;;;;;;;3.55;1.88;;;34.80;30.70;;;;;;5962649;29;20130;-80
2022/08/30 11:13:21;;;;;;;8.15;2.42;;;35.20;30.60;;;;;;5948727;29;20278;-80
2022/08/30 11:16:38;;;;;;;4.50;1.88;;;35.30;30.50;;;;;;5945931;29;20148;-79
2022/08/30 11:19:40;;;;;;;3.83;2.10;;;35.30;30.60;;;;;;5963513;29;20387;-79
2022/08/30 11:23:27;;;;;;;4.35;1.83;;;35.30;31.00;;;;;;5960317;29;20043;-79
2022/08/30 11:26:44;;;;;;;6.63;1.80;;;35.30;31.00;;;;;;6005852;29;20094;-79
2022/08/30 11:29:45;;;;;;;3.97;2.00;;;35.30;31.30;;;;;;6008856;29;20061;-80
2022/08/30 11:33:23;;;;;;;6.65;2.25;;;35.70;30.50;;;;;;6011375;29;20101;-79
2022/08/30 11:36:37;;;;;;;3.10;1.70;;;35.90;30.10;;;;;;6008282;29;20053;-79
2022/08/30 11:39:47;;;;;;;7.30;3.05;;;35.60;30.20;;;;;;6000123;29;20389;-78
2022/08/30 11:42:51;;;;;;;10.32;1.92;;;35.40;30.50;;;;;;6009249;29;20050;-78
2022/08/30 11:46:11;;;;;;;1.52;1.20;;;35.40;30.70;;;;;;6011777;29;20038;-79
2022/08/30 11:49:12;;;;;;;2.30;1.45;;;35.40;30.60;;;;;;6023447;29;20470;-78
2022/08/30 11:52:31;;;;;;;5.65;2.00;;;35.30;30.80;;;;;;5987627;29;20034;-78
2022/08/30 11:55:55;;;;;;;4.38;1.92;;;35.30;31.00;;;;;;6018126;29;20137;-79
2022/08/30 11:59:28;;;;;;;7.03;2.20;;;35.60;30.50;;;;;;6006893;29;20128;-79
2022/08/30 12:03:00;;;;;;;3.88;2.25;;;35.80;30.00;;;;;;6000800;29;20056;-79
2022/08/30 12:06:07;;;;;;;4.60;2.47;;;35.70;29.90;;;;;;6006434;29;20434;-80
2022/08/30 12:09:48;;;;;;;4.47;2.10;;;35.40;30.30;;;;;;6007478;29;20041;-79
2022/08/30 12:12:50;;;;;;;6.82;2.15;;;35.10;30.00;;;;;;6004830;29;20121;-79
2022/08/30 12:15:56;;;;;;;6.05;2.97;;;34.80;30.00;;;;;;6009876;29;20046;-79
2022/08/30 12:19:10;;;;;;;5.30;2.45;;;34.60;30.10;;;;;;6009228;29;20121;-78
2022/08/30 12:22:16;;;;;;;7.65;2.50;;;34.50;30.30;;;;;;6008001;29;20050;-79
2022/08/30 12:25:37;;;;;;;10.35;3.10;;;34.40;30.30;;;;;;6007452;29;20394;-79
2022/08/30 12:28:39;;;;;;;3.45;2.35;;;34.40;30.30;;;;;;6008401;29;20500;-79
2022/08/30 12:31:59;;;;;;;3.95;2.40;;;34.20;30.30;;;;;;5979550;29;20034;-79
2022/08/30 12:35:05;;;;;;;6.25;3.10;;;34.10;30.60;;;;;;6006595;29;20053;-78
2022/08/30 12:38:18;;;;;;;38.13;2.30;;;33.90;30.60;;;;;;5989560;29;20484;-79
2022/08/30 12:41:21;;;;;;;10.13;1.40;;;33.70;33.30;;;;;;5991900;29;20460;-79
2022/08/30 12:44:27;;;;;;;8.80;1.67;;;33.20;35.40;;;;;;5986568;29;20042;-79
2022/08/30 12:47:41;;;;;;;5.18;1.15;;;32.40;36.20;;;;;;6006632;29;20081;-79
2022/08/30 12:51:00;;;;;;;12.00;1.60;;;31.60;36.30;;;;;;5995954;29;20428;-79
2022/08/30 12:54:29;;;;;;;2.45;1.25;;;31.00;37.30;;;;;;5988784;29;20125;-79
2022/08/30 12:57:37;;;;;;;1.75;1.20;;;30.60;38.40;;;;;;5991626;29;20388;-79
2022/08/30 13:00:42;;;;;;;2.28;1.33;;;30.40;39.30;;;;;;5988112;29;20042;-79
2022/08/30 13:03:54;;;;;;;5.03;1.52;;;30.20;40.30;;;;;;5991117;29;20042;-79
2022/08/30 13:06:58;;;;;;;4.13;1.45;;;30.20;41.10;;;;;;5988573;29;20038;-79
2022/08/30 13:10:07;;;;;;;5.53;1.20;;;30.30;41.40;;;;;;5975343;29;20044;-79
2022/08/30 13:13:08;;;;;;;2.38;1.35;;;30.30;42.00;;;;;;5988928;29;21450;-80
2022/08/30 13:16:36;;;;;;;2.63;1.35;;;30.10;42.40;;;;;;6008304;29;20061;-78
2022/08/30 13:19:42;;;;;;;2.58;1.52;;;30.00;42.90;;;;;;5961983;29;20041;-80
2022/08/30 13:23:00;;;;;;;2.05;1.42;;;29.90;43.00;;;;;;6007382;29;20125;-80
2022/08/30 13:26:01;;;;;;;5.03;2.00;;;29.80;42.90;;;;;;5975355;29;20046;-79
2022/08/30 13:29:05;;;;;;;5.03;1.90;;;29.60;43.20;;;;;;5991718;29;20479;-79
2022/08/30 13:32:06;;;;;;;4.28;1.92;;;29.50;43.90;;;;;;5991749;29;20137;-80
2022/08/30 13:35:08;;;;;;;8.57;2.70;;;29.60;44.20;;;;;;5976658;29;20444;-80
2022/08/30 13:38:09;;;;;;;5.93;2.00;;;29.80;44.30;;;;;;5991709;29;20313;-80
2022/08/30 13:41:10;;;;;;;2.90;1.92;;;29.70;45.00;;;;;;6006616;29;20038;-79
2022/08/30 13:44:11;;;;;;;3.95;1.60;;;29.40;45.70;;;;;;5983276;29;20035;-79
2022/08/30 13:47:12;;;;;;;5.72;1.98;;;29.10;45.90;;;;;;5985703;29;20584;-79
2022/08/30 13:50:13;;;;;;;3.53;1.60;;;29.00;45.90;;;;;;5975110;29;20117;-79
2022/08/30 13:53:14;;;;;;;4.10;1.52;;;29.00;45.70;;;;;;5976598;29;20068;-79
2022/08/30 13:56:15;;;;;;;4.72;1.45;;;29.10;45.30;;;;;;6006069;29;20113;-79
2022/08/30 13:59:16;;;;;;;6.97;1.50;;;29.30;44.60;;;;;;6007175;29;20099;-80
2022/08/30 14:02:17;;;;;;;4.10;1.33;;;29.70;43.80;;;;;;5991481;29;20042;-80
2022/08/30 14:05:18;;;;;;;5.55;2.72;;;30.20;42.70;;;;;;5993409;29;20033;-78
2022/08/30 14:08:27;;;;;;;3.53;1.58;;;30.80;41.70;;;;;;6010647;29;20337;-81
2022/08/30 14:11:28;;;;;;;5.78;2.85;;;31.30;40.80;;;;;;5995935;29;20407;-79
2022/08/30 14:14:29;;;;;;;22.38;7.20;;;31.80;39.90;;;;;;5980463;29;20041;-78
2022/08/30 14:17:31;;;;;;;4.00;2.50;;;32.00;39.50;;;;;;6004725;29;20122;-78
2022/08/30 14:20:34;;;;;;;6.22;1.98;;;32.00;39.70;;;;;;5981606;29;20042;-79
2022/08/30 14:23:35;;;;;;;4.43;1.45;;;31.80;40.10;;;;;;6012926;29;20341;-79
2022/08/30 14:26:54;;;;;;;5.65;1.80;;;31.60;40.60;;;;;;5998884;29;20109;-79
2022/08/30 14:29:56;;;;;;;4.18;1.35;;;31.10;41.00;;;;;;6009366;29;20038;-79
2022/08/30 14:32:57;;;;;;;2.78;1.67;;;30.80;41.60;;;;;;6011764;29;20337;-80
2022/08/30 14:35:58;;;;;;;6.22;1.33;;;30.50;42.00;;;;;;6010433;29;20069;-79
2022/08/30 14:38:59;;;;;;;2.42;1.15;;;30.20;42.30;;;;;;6013895;29;20337;-79
2022/08/30 14:42:00;;;;;;;2.75;1.50;;;30.00;42.70;;;;;;6013553;29;20038;-79
2022/08/30 14:45:02;;;;;;;3.15;1.50;;;29.80;42.90;;;;;;6012391;29;20042;-79
2022/08/30 14:48:07;;;;;;;6.20;2.33;;;29.70;43.40;;;;;;6015854;29;20034;-79
2022/08/30 14:51:17;;;;;;;3.95;2.00;;;29.50;44.10;;;;;;6013105;29;20129;-79
2022/08/30 14:54:24;;;;;;;2.35;1.45;;;29.20;44.50;;;;;;6018439;29;20495;-79
2022/08/30 14:57:25;;;;;;;4.07;1.42;;;29.00;44.90;;;;;;6012180;29;20102;-79
2022/08/30 15:00:27;;;;;;;5.45;1.25;;;28.80;45.20;;;;;;6007685;29;20061;-80
2022/08/30 15:03:28;;;;;;;6.60;2.42;;;28.70;45.30;;;;;;6009875;29;20045;-79
2022/08/30 15:06:29;;;;;;;3.60;1.50;;;28.50;45.30;;;;;;6011374;29;20064;-79
2022/08/30 15:09:31;;;;;;;4.40;1.17;;;28.50;45.30;;;;;;6012330;29;20038;-78
2022/08/30 15:12:32;;;;;;;3.10;1.40;;;28.50;45.40;;;;;;6008341;29;20048;-79
2022/08/30 15:15:33;;;;;;;5.00;1.50;;;28.40;45.60;;;;;;6008626;29;20046;-80
2022/08/30 15:18:34;;;;;;;13.98;2.28;;;28.40;45.80;;;;;;6011055;29;20089;-80
2022/08/30 15:21:38;;;;;;;8.30;2.08;;;28.30;46.50;;;;;;6015036;29;20051;-75
2022/08/30 15:24:39;;;;;;;11.88;2.58;;;27.70;49.20;;;;;;6009910;29;20038;-75
2022/08/30 15:27:40;;;;;;;3.78;1.70;;;26.90;52.50;;;;;;6011214;29;20038;-76
2022/08/30 15:30:41;;;;;;;8.75;1.92;;;26.20;54.20;;;;;;6007229;29;20085;-75
2022/08/30 15:33:43;;;;;;;10.00;2.03;;;25.60;55.20;;;;;;5982584;29;20038;-75
2022/08/30 15:36:45;;;;;;;9.95;2.20;;;25.20;56.80;;;;;;5995432;29;20045;-76
2022/08/30 15:39:46;;;;;;;3.10;1.40;;;25.00;58.00;;;;;;5996444;29;20068;-76
2022/08/30 15:42:47;;;;;;;4.05;1.95;;;24.90;58.60;;;;;;5995297;29;20068;-75
2022/08/30 15:45:48;;;;;;;7.55;2.15;;;24.80;59.30;;;;;;5981610;29;20050;-76
2022/08/30 15:48:51;;;;;;;10.25;4.03;;;24.70;59.80;;;;;;5983880;29;20061;-75
2022/08/30 15:51:52;;;;;;;20.42;6.63;;;24.70;60.10;;;;;;5998574;29;20049;-77
2022/08/30 15:54:53;;;;;;;6.70;3.70;;;24.70;60.70;;;;;;6010892;29;20041;-75
2022/08/30 15:57:54;;;;;;;11.32;4.25;;;24.80;61.00;;;;;;6010537;29;20473;-76
2022/08/30 16:00:55;;;;;;;7.60;2.95;;;24.80;61.10;;;;;;6011504;29;20044;-77
2022/08/30 16:03:55;;;;;;;5.18;2.60;;;24.90;61.30;;;;;;6009669;29;20058;-76
2022/08/30 16:06:56;;;;;;;4.97;2.22;;;25.00;61.20;;;;;;6010661;29;20038;-75
2022/08/30 16:09:57;;;;;;;3.55;2.13;;;25.10;60.90;;;;;;5994025;29;20052;-76